createdAt,value
2023-05-12T00:01:19.987Z,98140.44
2023-05-12T00:03:50.050Z,98146.19
2023-05-12T00:06:19.365Z,98145.03
2023-05-12T00:08:50.023Z,98131.66
2023-05-12T00:11:19.784Z,98140.81
2023-05-12T00:13:57.799Z,98129.22
2023-05-12T00:16:27.201Z,98140.31
2023-05-12T00:18:55.185Z,98129.69
2023-05-12T00:21:36.790Z,98136.38
2023-05-12T00:24:07.117Z,98140.13
2023-05-12T00:26:44.871Z,98102.44
2023-05-12T00:29:18.889Z,98133.91
2023-05-12T00:34:31.669Z,98125.44
2023-05-12T00:37:02.928Z,98124.78
2023-05-12T00:39:33.880Z,98122.50
2023-05-12T00:42:11.056Z,98134.41
2023-05-12T00:44:42.838Z,98126.09
2023-05-12T00:47:15.374Z,98128.22
2023-05-12T00:49:45.908Z,98116.66
2023-05-12T00:52:20.964Z,98122.50
2023-05-12T00:54:51.502Z,98121.69
2023-05-12T00:57:22.050Z,98112.91
2023-05-12T01:00:00.304Z,98099.66
2023-05-12T01:02:42.150Z,98107.81
2023-05-12T01:05:15.781Z,98108.00
2023-05-12T01:07:52.545Z,98112.59
2023-05-12T01:10:29.431Z,98112.69
2023-05-12T01:13:07.144Z,98113.03
2023-05-12T01:15:48.438Z,98102.75
2023-05-12T01:18:20.651Z,98115.56
2023-05-12T01:21:04.456Z,98115.91
2023-05-12T01:23:41.502Z,98099.13
2023-05-12T01:26:19.219Z,98104.97
2023-05-12T01:28:52.616Z,98114.41
2023-05-12T01:31:21.617Z,98114.16
2023-05-12T01:33:52.224Z,98118.56
2023-05-12T01:36:20.751Z,98118.56
2023-05-12T01:38:55.278Z,98119.38
2023-05-12T01:41:28.104Z,98115.78
2023-05-12T01:44:10.977Z,98116.28
2023-05-12T01:46:55.066Z,98112.03
2023-05-12T01:49:36.085Z,98116.75
2023-05-12T01:52:05.817Z,98103.91
2023-05-12T01:54:36.857Z,98108.78
2023-05-12T01:57:22.211Z,98109.78
2023-05-12T01:59:56.098Z,98108.63
2023-05-12T02:02:43.066Z,98096.53
2023-05-12T02:05:18.515Z,98061.00
2023-05-12T02:07:49.975Z,98104.72
2023-05-12T02:10:19.859Z,98112.53
2023-05-12T02:12:49.424Z,98109.09
2023-05-12T02:15:21.781Z,98111.38
2023-05-12T02:18:03.454Z,98112.84
2023-05-12T02:20:37.263Z,98109.09
2023-05-12T02:23:08.296Z,98090.81
2023-05-12T02:25:45.948Z,98097.00
2023-05-12T02:28:28.062Z,98111.50
2023-05-12T02:30:58.166Z,98110.25
2023-05-12T02:33:30.440Z,98111.06
2023-05-12T02:36:01.048Z,98088.88
2023-05-12T02:38:32.975Z,98101.75
2023-05-12T02:41:06.919Z,98084.47
2023-05-12T02:43:40.722Z,98099.63
2023-05-12T02:46:11.897Z,98100.75
2023-05-12T02:48:43.243Z,98096.03
2023-05-12T02:51:12.204Z,98098.97
2023-05-12T02:53:42.430Z,98100.59
2023-05-12T02:56:16.254Z,98089.19
2023-05-12T02:58:46.590Z,98101.22
2023-05-12T03:01:18.445Z,98092.44
2023-05-12T03:03:49.193Z,98108.06
2023-05-12T03:06:22.125Z,98107.59
2023-05-12T03:08:50.011Z,98106.63
2023-05-12T03:14:03.372Z,98110.03
2023-05-12T03:16:37.344Z,98109.22
2023-05-12T03:19:06.487Z,98114.41
2023-05-12T03:21:37.846Z,98110.84
2023-05-12T03:24:16.702Z,98110.03
2023-05-12T03:26:49.338Z,98110.38
2023-05-12T03:29:27.032Z,98115.56
2023-05-12T03:32:00.281Z,98112.78
2023-05-12T03:34:38.230Z,98119.13
2023-05-12T03:37:20.133Z,98112.06
2023-05-12T03:39:53.315Z,98106.13
2023-05-12T03:42:23.952Z,98111.50
2023-05-12T03:45:04.436Z,98086.41
2023-05-12T03:47:36.186Z,98093.91
2023-05-12T03:50:14.255Z,98114.09
2023-05-12T03:52:42.469Z,98114.09
2023-05-12T03:55:14.892Z,98098.94
2023-05-12T04:00:35.346Z,98100.75
2023-05-12T04:03:11.975Z,98082.13
2023-05-12T04:05:43.018Z,98115.91
2023-05-12T04:08:12.803Z,98110.69
2023-05-12T04:10:46.434Z,98114.09
2023-05-12T04:13:17.895Z,98120.00
2023-05-12T04:15:46.598Z,98085.41
2023-05-12T04:18:18.921Z,98097.47
2023-05-12T04:20:49.347Z,98106.94
2023-05-12T04:23:21.099Z,98120.50
2023-05-12T04:25:51.788Z,98121.75
2023-05-12T04:28:21.372Z,98119.16
2023-05-12T04:30:58.777Z,98129.63
2023-05-12T04:33:30.975Z,98134.00
2023-05-12T04:35:59.802Z,98131.88
2023-05-12T04:38:32.368Z,98113.59
2023-05-12T04:41:09.540Z,98134.00
2023-05-12T04:46:24.199Z,98142.63
2023-05-12T04:48:55.110Z,98139.19
2023-05-12T04:51:28.547Z,98146.22
2023-05-12T04:54:16.456Z,98150.88
2023-05-12T04:56:57.023Z,98149.31
2023-05-12T04:59:41.033Z,98155.69
2023-05-12T05:02:19.106Z,98132.88
2023-05-12T05:04:47.794Z,98083.75
2023-05-12T05:07:21.540Z,98139.66
2023-05-12T05:09:53.313Z,98141.03
2023-05-12T05:12:22.282Z,98143.00
2023-05-12T05:14:51.439Z,98145.63
2023-05-12T05:17:30.137Z,98139.13
2023-05-12T05:20:00.316Z,98137.00
2023-05-12T05:22:34.429Z,98134.59
2023-05-12T05:25:23.481Z,98134.94
2023-05-12T05:27:53.468Z,98143.72
2023-05-12T05:30:23.472Z,98143.72
2023-05-12T05:33:06.039Z,98126.13
2023-05-12T05:35:41.442Z,98152.25
2023-05-12T05:38:13.616Z,98154.69
2023-05-12T05:40:52.968Z,98156.81
2023-05-12T05:43:25.700Z,98155.66
2023-05-12T05:45:56.122Z,98159.16
2023-05-12T05:48:24.212Z,98163.38
2023-05-12T05:50:53.272Z,98156.69
2023-05-12T05:53:23.955Z,98154.06
2023-05-12T05:58:37.640Z,98161.75
2023-05-12T06:01:14.046Z,98161.44
2023-05-12T06:03:49.583Z,98166.81
2023-05-12T06:06:19.836Z,98167.28
2023-05-12T06:08:51.243Z,98170.88
2023-05-12T06:11:23.843Z,98173.97
2023-05-12T06:13:51.552Z,98159.78
2023-05-12T06:16:25.002Z,98172.84
2023-05-12T06:18:53.414Z,98167.63
2023-05-12T06:21:25.229Z,98157.81
2023-05-12T06:24:03.827Z,98171.84
2023-05-12T06:26:34.170Z,98172.66
2023-05-12T06:29:12.617Z,98170.38
2023-05-12T06:31:45.371Z,98176.28
2023-05-12T06:34:18.150Z,98182.63
2023-05-12T06:36:53.796Z,98176.25
2023-05-12T06:39:23.955Z,98181.97
2023-05-12T06:41:56.666Z,98150.97
2023-05-12T06:44:31.555Z,98197.78
2023-05-12T06:47:03.015Z,98185.53
2023-05-12T06:49:47.578Z,98185.19
2023-05-12T06:52:21.011Z,98180.13
2023-05-12T06:54:52.483Z,98190.09
2023-05-12T06:57:22.213Z,98176.22
2023-05-12T06:59:55.205Z,98190.72
2023-05-12T07:02:25.767Z,98183.41
2023-05-12T07:04:56.308Z,98185.13
2023-05-12T07:07:26.696Z,98188.44
2023-05-12T07:10:13.459Z,98172.13
2023-05-12T07:12:44.159Z,98189.69
2023-05-12T07:15:15.674Z,98185.22
2023-05-12T07:17:44.628Z,98181.19
2023-05-12T07:20:16.417Z,98190.16
2023-05-12T07:22:50.639Z,98192.84
2023-05-12T07:25:24.855Z,98187.13
2023-05-12T07:27:59.996Z,98186.75
2023-05-12T07:30:32.049Z,98183.66
2023-05-12T07:33:04.838Z,98169.78
2023-05-12T07:35:35.577Z,98190.50
2023-05-12T07:38:19.785Z,98179.53
2023-05-12T07:40:58.974Z,98194.22
2023-05-12T07:43:30.596Z,98184.63
2023-05-12T07:46:07.246Z,98187.06
2023-05-12T07:48:47.604Z,98188.34
2023-05-12T07:51:22.532Z,98193.66
2023-05-12T07:53:52.859Z,98195.31
2023-05-12T07:56:24.926Z,98194.50
2023-05-12T07:58:56.985Z,98187.66
2023-05-12T08:01:25.397Z,98192.56
2023-05-12T08:04:01.547Z,98198.75
2023-05-12T08:06:32.971Z,98200.84
2023-05-12T08:09:21.159Z,98200.03
2023-05-12T08:11:52.012Z,98204.31
2023-05-12T08:14:22.788Z,98202.69
2023-05-12T08:16:57.154Z,98208.91
2023-05-12T08:19:28.652Z,98194.97
2023-05-12T08:22:04.259Z,98201.22
2023-05-12T08:24:35.638Z,98188.47
2023-05-12T08:27:18.936Z,98203.84
2023-05-12T08:29:49.932Z,98174.06
2023-05-12T08:32:26.553Z,98207.31
2023-05-12T08:34:54.963Z,98217.72
2023-05-12T08:37:26.408Z,98197.25
2023-05-12T08:40:01.238Z,98215.59
2023-05-12T08:43:08.725Z,98212.38
2023-05-12T08:45:45.518Z,98200.44
2023-05-12T08:48:19.763Z,98209.22
2023-05-12T08:50:54.071Z,98212.78
2023-05-12T08:59:06.745Z,98208.25
2023-05-12T09:01:44.010Z,98221.13
2023-05-12T09:04:17.975Z,98209.03
2023-05-12T09:06:47.111Z,98233.16
2023-05-12T09:09:28.101Z,98236.28
2023-05-12T09:12:03.238Z,98235.13
2023-05-12T09:14:40.284Z,98241.16
2023-05-12T09:17:23.296Z,98238.31
2023-05-12T09:19:56.194Z,98235.34
2023-05-12T09:22:38.458Z,98245.63
2023-05-12T09:25:22.796Z,98241.56
2023-05-12T09:27:59.592Z,98246.44
2023-05-12T09:30:46.103Z,98224.09
2023-05-12T09:33:16.518Z,98242.03
2023-05-12T09:35:50.838Z,98243.31
2023-05-12T09:38:39.370Z,98247.78
2023-05-12T09:41:16.825Z,98249.22
2023-05-12T09:43:47.834Z,98242.06
2023-05-12T09:46:23.141Z,98246.66
2023-05-12T09:48:53.300Z,98244.00
2023-05-12T09:51:24.581Z,98242.16
2023-05-12T09:53:55.095Z,98249.97
2023-05-12T09:56:28.979Z,98243.59
2023-05-12T10:01:41.068Z,98245.84
2023-05-12T10:04:19.007Z,98232.44
2023-05-12T10:09:42.483Z,98238.78
2023-05-12T10:12:21.237Z,98245.34
2023-05-12T10:14:51.982Z,98249.25
2023-05-12T10:17:24.270Z,98248.75
2023-05-12T10:19:59.690Z,98232.59
2023-05-12T10:22:40.630Z,98228.28
2023-05-12T10:25:14.770Z,98249.31
2023-05-12T10:27:42.796Z,98251.72
2023-05-12T10:30:14.177Z,98246.50
2023-05-12T10:33:08.421Z,98256.94
2023-05-12T10:35:51.694Z,98259.34
2023-05-12T10:38:28.959Z,98252.63
2023-05-12T10:41:10.351Z,98259.94
2023-05-12T10:43:43.525Z,98252.00
2023-05-12T10:46:24.581Z,98267.06
2023-05-12T10:49:04.940Z,98245.84
2023-05-12T10:51:56.960Z,98259.06
2023-05-12T10:54:28.362Z,98257.22
2023-05-12T10:57:02.913Z,98242.22
2023-05-12T10:59:48.738Z,98264.50
2023-05-12T11:02:41.751Z,98259.72
2023-05-12T11:05:19.457Z,98266.34
2023-05-12T11:07:54.621Z,98274.97
2023-05-12T11:10:29.318Z,98277.34
2023-05-12T11:13:01.303Z,98274.97
2023-05-12T11:15:38.438Z,98250.38
2023-05-12T11:18:11.378Z,98277.53
2023-05-12T11:20:43.888Z,98273.97
2023-05-12T11:23:13.735Z,98265.13
2023-05-12T11:26:06.492Z,98267.13
2023-05-12T11:28:47.984Z,98274.59
2023-05-12T11:31:24.220Z,98269.91
2023-05-12T11:34:13.097Z,98265.16
2023-05-12T11:36:52.575Z,98272.75
2023-05-12T11:39:23.567Z,98262.81
2023-05-12T11:42:09.111Z,98273.25
2023-05-12T11:44:55.708Z,98266.59
2023-05-12T11:47:33.992Z,98268.25
2023-05-12T11:50:16.884Z,98266.97
2023-05-12T11:55:34.196Z,98269.66
2023-05-12T11:58:04.718Z,98262.22
2023-05-12T12:00:38.119Z,98273.50
2023-05-12T12:03:15.844Z,98276.16
2023-05-12T12:05:48.107Z,98279.78
2023-05-12T12:08:25.051Z,98272.59
2023-05-12T12:10:58.156Z,98275.91
2023-05-12T12:13:41.533Z,98273.41
2023-05-12T12:16:14.291Z,98282.22
2023-05-12T12:18:52.470Z,98274.06
2023-05-12T12:21:40.823Z,98273.88
2023-05-12T12:24:13.058Z,98272.78
2023-05-12T12:26:44.052Z,98278.69
2023-05-12T12:29:16.242Z,98275.06
2023-05-12T12:31:54.442Z,98281.97
2023-05-12T12:34:38.499Z,98279.81
2023-05-12T12:37:17.299Z,98271.66
2023-05-12T12:39:47.695Z,98281.53
2023-05-12T12:42:30.072Z,98279.78
2023-05-12T12:45:06.034Z,98271.66
2023-05-12T12:47:41.790Z,98283.97
2023-05-12T12:50:13.679Z,98277.56
2023-05-12T12:52:45.419Z,98283.91
2023-05-12T12:55:35.056Z,98278.69
2023-05-12T12:58:20.312Z,98276.16
2023-05-12T13:00:53.652Z,98286.25
2023-05-12T13:03:25.960Z,98283.72
2023-05-12T13:06:10.221Z,98275.13
2023-05-12T13:08:40.277Z,98275.84
2023-05-12T13:11:11.081Z,98280.44
2023-05-12T13:13:39.784Z,98275.72
2023-05-12T13:16:11.410Z,98275.59
2023-05-12T13:18:42.141Z,98281.56
2023-05-12T13:21:17.335Z,98277.81
2023-05-12T13:23:45.590Z,98287.88
2023-05-12T13:26:24.428Z,98254.91
2023-05-12T13:28:54.934Z,98279.19
2023-05-12T13:31:26.552Z,98274.84
2023-05-12T13:33:57.098Z,98275.19
2023-05-12T13:36:31.261Z,98277.81
2023-05-12T13:41:40.603Z,98270.81
2023-05-12T13:44:09.621Z,98280.97
2023-05-12T13:46:41.037Z,98272.88
2023-05-12T13:49:15.705Z,98281.66
2023-05-12T13:51:43.640Z,98290.31
2023-05-12T13:54:14.687Z,98283.44
2023-05-12T13:59:34.974Z,98279.00
2023-05-12T14:02:04.077Z,98286.09
2023-05-12T14:04:45.087Z,98281.63
2023-05-12T14:07:20.867Z,98268.09
2023-05-12T14:09:53.596Z,98279.19
2023-05-12T14:12:23.366Z,98283.88
2023-05-12T14:15:21.789Z,98226.88
2023-05-12T14:17:58.600Z,98286.84
2023-05-12T14:20:35.653Z,98292.19
2023-05-12T14:23:07.275Z,98276.59
2023-05-12T14:25:40.312Z,98296.16
2023-05-12T14:28:08.544Z,98294.38
2023-05-12T14:30:43.799Z,98299.44
2023-05-12T14:33:12.812Z,98295.03
2023-05-12T14:36:03.260Z,98295.16
2023-05-12T14:38:38.230Z,98296.22
2023-05-12T14:41:10.080Z,98294.56
2023-05-12T14:43:39.846Z,98296.84
2023-05-12T14:46:15.120Z,98312.88
2023-05-12T14:48:53.254Z,98305.03
2023-05-12T14:51:22.560Z,98312.28
2023-05-12T14:54:24.812Z,98302.44
2023-05-12T14:56:59.411Z,98308.31
2023-05-12T14:59:43.563Z,98287.66
2023-05-12T15:02:13.610Z,98306.81
2023-05-12T15:04:44.685Z,98289.84
2023-05-12T15:07:15.386Z,98313.53
2023-05-12T15:09:53.237Z,98303.06
2023-05-12T15:12:24.029Z,98313.44
2023-05-12T15:14:56.205Z,98314.38
2023-05-12T15:17:25.029Z,98311.91
2023-05-12T15:19:54.070Z,98316.47
2023-05-12T15:22:24.087Z,98322.69
2023-05-12T15:25:07.105Z,98315.50
2023-05-12T15:27:37.093Z,98317.63
2023-05-12T15:30:07.676Z,98316.94
2023-05-12T15:32:44.016Z,98322.88
2023-05-12T15:35:14.644Z,98329.41
2023-05-12T15:37:54.333Z,98333.38
2023-05-12T15:40:27.360Z,98329.78
2023-05-12T15:43:16.397Z,98340.53
2023-05-12T15:45:44.104Z,98336.19
2023-05-12T15:48:14.561Z,98338.81
2023-05-12T15:50:48.135Z,98341.16
2023-05-12T15:53:19.984Z,98342.16
2023-05-12T15:55:51.081Z,98343.91
2023-05-12T15:58:24.711Z,98347.38
2023-05-12T16:01:06.242Z,98344.59
2023-05-12T16:03:35.982Z,98348.84
2023-05-12T16:06:07.128Z,98353.59
2023-05-12T16:08:39.413Z,98347.56
2023-05-12T16:11:17.186Z,98351.44
2023-05-12T16:13:48.211Z,98352.78
2023-05-12T16:16:18.327Z,98358.50
2023-05-12T16:18:48.402Z,98332.19
2023-05-12T16:21:24.415Z,98345.41
2023-05-12T16:23:54.435Z,98364.72
2023-05-12T16:26:24.633Z,98360.31
2023-05-12T16:28:54.330Z,98360.34
2023-05-12T16:31:28.649Z,98368.69
2023-05-12T16:34:04.300Z,98364.25
2023-05-12T16:36:37.797Z,98343.38
2023-05-12T16:39:08.999Z,98363.94
2023-05-12T16:41:43.063Z,98363.59
2023-05-12T16:44:18.474Z,98369.00
2023-05-12T16:46:48.601Z,98371.78
2023-05-12T16:49:26.436Z,98377.34
2023-05-12T16:51:56.342Z,98329.47
2023-05-12T16:54:26.486Z,98372.25
2023-05-12T16:56:57.446Z,98376.38
2023-05-12T16:59:27.318Z,98376.03
2023-05-12T17:02:08.194Z,98377.47
2023-05-12T17:04:39.270Z,98388.75
2023-05-12T17:07:13.312Z,98388.94
2023-05-12T17:09:50.901Z,98394.97
2023-05-12T17:12:37.808Z,98396.78
2023-05-12T17:15:18.537Z,98392.69
2023-05-12T17:17:53.910Z,98405.75
2023-05-12T17:20:22.006Z,98401.66
2023-05-12T17:22:54.332Z,98401.19
2023-05-12T17:25:29.575Z,98402.16
2023-05-12T17:27:58.630Z,98395.78
2023-05-12T17:30:35.857Z,98406.72
2023-05-12T17:33:07.829Z,98409.34
2023-05-12T17:35:50.835Z,98405.59
2023-05-12T17:38:30.184Z,98410.13
2023-05-12T17:40:58.552Z,98415.34
2023-05-12T17:43:30.390Z,98410.75
2023-05-12T17:46:12.379Z,98418.75
2023-05-12T17:48:45.301Z,98406.66
2023-05-12T17:51:25.243Z,98405.69
2023-05-12T17:53:57.814Z,98425.59
2023-05-12T17:56:36.572Z,98426.25
2023-05-12T17:59:07.654Z,98413.69
2023-05-12T18:01:58.879Z,98438.97
2023-05-12T18:04:29.524Z,98438.66
2023-05-12T18:06:57.344Z,98439.78
2023-05-12T18:09:27.708Z,98446.44
2023-05-12T18:12:04.567Z,98441.53
2023-05-12T18:14:37.270Z,98445.13
2023-05-12T18:17:10.479Z,98451.69
2023-05-12T18:19:44.491Z,98455.56
2023-05-12T18:22:21.840Z,98454.09
2023-05-12T18:24:54.663Z,98456.88
2023-05-12T18:27:40.358Z,98452.78
2023-05-12T18:30:17.291Z,98461.41
2023-05-12T18:32:47.221Z,98434.38
2023-05-12T18:35:25.563Z,98456.38
2023-05-12T18:38:07.663Z,98464.91
2023-05-12T18:40:44.353Z,98459.41
2023-05-12T18:43:21.779Z,98461.34
2023-05-12T18:45:53.374Z,98461.53
2023-05-12T18:48:25.027Z,98467.25
2023-05-12T18:50:54.348Z,98469.41
2023-05-12T18:53:37.636Z,98470.03
2023-05-12T18:56:08.545Z,98479.84
2023-05-12T18:58:39.088Z,98473.31
2023-05-12T19:01:11.844Z,98482.13
2023-05-12T19:03:42.171Z,98477.09
2023-05-12T19:06:19.952Z,98412.47
2023-05-12T19:08:53.139Z,98464.41
2023-05-12T19:11:29.405Z,98479.44
2023-05-12T19:13:57.104Z,98473.91
2023-05-12T19:16:35.015Z,98475.72
2023-05-12T19:19:06.558Z,98486.63
2023-05-12T19:21:43.521Z,98495.28
2023-05-12T19:24:17.352Z,98490.53
2023-05-12T19:26:47.387Z,98486.81
2023-05-12T19:29:21.173Z,98489.72
2023-05-12T19:31:54.928Z,98494.16
2023-05-12T19:34:23.974Z,98505.25
2023-05-12T19:37:01.119Z,98498.06
2023-05-12T19:39:33.936Z,98512.56
2023-05-12T19:42:04.733Z,98511.59
2023-05-12T19:44:34.101Z,98519.53
2023-05-12T19:47:06.932Z,98521.50
2023-05-12T19:49:49.950Z,98517.03
2023-05-12T19:52:23.469Z,98523.13
2023-05-12T19:54:58.112Z,98518.09
2023-05-12T19:57:36.816Z,98517.13
2023-05-12T20:00:22.040Z,98498.44
2023-05-12T20:02:52.724Z,98526.41
2023-05-12T20:05:23.053Z,98524.13
2023-05-12T20:07:54.659Z,98532.91
2023-05-12T20:10:27.666Z,98527.97
2023-05-12T20:12:59.914Z,98529.81
2023-05-12T20:15:29.257Z,98530.13
2023-05-12T20:18:04.644Z,98518.94
2023-05-12T20:20:34.682Z,98527.63
2023-05-12T20:23:05.649Z,98539.53
2023-05-12T20:25:36.907Z,98544.69
2023-05-12T20:28:04.855Z,98517.88
2023-05-12T20:30:35.695Z,98538.84
2023-05-12T20:35:50.475Z,98536.75
2023-05-12T20:38:19.358Z,98537.81
2023-05-12T20:41:02.156Z,98535.56
2023-05-12T20:43:34.090Z,98523.56
2023-05-12T20:46:13.401Z,98533.00
2023-05-12T20:48:46.301Z,98534.19
2023-05-12T20:51:20.628Z,98536.78
2023-05-12T20:53:51.182Z,98535.31
2023-05-12T20:56:24.974Z,98536.28
2023-05-12T20:58:53.804Z,98519.69
2023-05-12T21:01:24.955Z,98543.09
2023-05-12T21:03:55.250Z,98543.22
2023-05-12T21:06:39.540Z,98532.06
2023-05-12T21:09:08.873Z,98541.06
2023-05-12T21:11:39.241Z,98538.41
2023-05-12T21:14:10.935Z,98535.31
2023-05-12T21:16:53.888Z,98537.34
2023-05-12T21:19:27.009Z,98536.09
2023-05-12T21:21:56.098Z,98538.56
2023-05-12T21:24:28.817Z,98540.13
2023-05-12T21:26:57.239Z,98540.72
2023-05-12T21:29:28.971Z,98517.19
2023-05-12T21:31:57.488Z,98549.34
2023-05-12T21:34:29.368Z,98544.25
2023-05-12T21:36:59.477Z,98546.63
2023-05-12T21:39:28.139Z,98545.22
2023-05-12T21:42:02.785Z,98539.59
2023-05-12T21:44:34.399Z,98542.88
2023-05-12T21:47:07.756Z,98545.13
2023-05-12T21:49:41.413Z,98543.78
2023-05-12T21:52:16.050Z,98542.56
2023-05-12T21:54:53.570Z,98539.19
2023-05-12T21:57:24.205Z,98539.19
2023-05-12T22:02:47.674Z,98556.59
2023-05-12T22:05:23.912Z,98493.63
2023-05-12T22:07:54.839Z,98534.47
2023-05-12T22:10:34.749Z,98538.78
2023-05-12T22:13:11.997Z,98552.69
2023-05-12T22:16:03.077Z,98541.97
2023-05-12T22:21:28.185Z,98548.94
2023-05-12T22:24:05.473Z,98536.94
2023-05-12T22:26:41.129Z,98550.97
2023-05-12T22:29:11.824Z,98557.56
2023-05-12T22:31:47.533Z,98554.78
2023-05-12T22:34:18.594Z,98548.34
2023-05-12T22:36:51.455Z,98545.13
2023-05-12T22:39:25.422Z,98556.59
2023-05-12T22:41:57.165Z,98558.66
2023-05-12T22:44:26.390Z,98551.81
2023-05-12T22:46:56.935Z,98562.06
2023-05-12T22:49:26.405Z,98556.22
2023-05-12T22:51:54.171Z,98554.78
2023-05-12T22:54:25.027Z,98558.66
2023-05-12T22:56:55.033Z,98562.56
2023-05-12T22:59:37.709Z,98558.34
2023-05-12T23:02:15.453Z,98566.16
2023-05-12T23:04:45.308Z,98562.88
2023-05-12T23:07:24.893Z,98560.22
2023-05-12T23:10:00.540Z,98560.53
2023-05-12T23:12:30.715Z,98557.16
2023-05-12T23:15:04.480Z,98558.88
2023-05-12T23:17:35.053Z,98549.66
2023-05-12T23:20:10.323Z,98557.03
2023-05-12T23:22:40.802Z,98549.75
2023-05-12T23:25:11.334Z,98549.25
2023-05-12T23:27:43.224Z,98520.66
2023-05-12T23:30:20.924Z,98543.81
2023-05-12T23:32:57.823Z,98550.25
2023-05-12T23:35:28.519Z,98551.69
2023-05-12T23:38:03.983Z,98528.22
2023-05-12T23:40:34.339Z,98552.50
2023-05-12T23:43:02.041Z,98549.81
2023-05-12T23:45:39.836Z,98541.81
2023-05-12T23:48:17.315Z,98549.09
2023-05-12T23:50:48.037Z,98552.75
2023-05-12T23:53:28.628Z,98550.09
2023-05-12T23:56:00.857Z,98546.00
2023-05-12T23:58:39.025Z,98540.78
